createdAt,value
2023-01-02T00:00:47.516Z,22.58
2023-01-02T00:01:47.464Z,22.68
2023-01-02T00:02:47.558Z,22.58
2023-01-02T00:03:47.627Z,22.58
2023-01-02T00:04:47.489Z,22.68
2023-01-02T00:05:47.457Z,22.68
2023-01-02T00:06:47.479Z,22.68
2023-01-02T00:07:47.458Z,22.58
2023-01-02T00:08:47.465Z,22.58
2023-01-02T00:09:47.454Z,22.67
2023-01-02T00:10:47.463Z,22.78
2023-01-02T00:11:47.459Z,22.68
2023-01-02T00:12:47.460Z,22.58
2023-01-02T00:13:47.453Z,22.68
2023-01-02T00:14:47.458Z,22.68
2023-01-02T00:15:47.527Z,22.67
2023-01-02T00:16:47.460Z,22.58
2023-01-02T00:17:47.447Z,22.67
2023-01-02T00:18:47.457Z,22.58
2023-01-02T00:19:47.447Z,22.57
2023-01-02T00:20:47.478Z,22.58
2023-01-02T00:21:47.445Z,22.58
2023-01-02T00:22:47.451Z,22.58
2023-01-02T00:23:47.443Z,22.58
2023-01-02T00:24:47.450Z,22.68
2023-01-02T00:25:47.440Z,22.58
2023-01-02T00:26:47.447Z,22.67
2023-01-02T00:27:47.445Z,22.68
2023-01-02T00:28:47.450Z,22.68
2023-01-02T00:29:47.439Z,22.58
2023-01-02T00:30:47.443Z,22.58
2023-01-02T00:31:47.479Z,22.68
2023-01-02T00:32:47.441Z,22.58
2023-01-02T00:33:47.433Z,22.58
2023-01-02T00:34:47.449Z,22.68
2023-01-02T00:35:47.443Z,22.68
2023-01-02T00:36:47.567Z,22.68
2023-01-02T00:37:47.430Z,22.68
2023-01-02T00:38:47.441Z,22.68
2023-01-02T00:39:47.425Z,22.67
2023-01-02T00:40:47.435Z,22.68
2023-01-02T00:41:47.428Z,22.68
2023-01-02T00:42:47.432Z,22.57
2023-01-02T00:43:47.433Z,22.68
2023-01-02T00:44:47.430Z,22.68
2023-01-02T00:45:47.422Z,22.58
2023-01-02T00:46:47.489Z,22.68
2023-01-02T00:47:47.419Z,22.68
2023-01-02T00:48:47.430Z,22.57
2023-01-02T00:49:47.417Z,22.68
2023-01-02T00:50:47.428Z,22.58
2023-01-02T00:51:47.419Z,22.58
2023-01-02T00:52:47.447Z,22.58
2023-01-02T00:53:47.423Z,22.68
2023-01-02T00:54:47.433Z,22.58
2023-01-02T00:55:47.413Z,22.58
2023-01-02T00:56:47.432Z,22.67
2023-01-02T00:57:47.427Z,22.57
2023-01-02T00:58:47.423Z,22.58
2023-01-02T00:59:47.412Z,22.58
2023-01-02T01:00:47.475Z,22.68
2023-01-02T01:01:47.753Z,22.58
2023-01-02T01:02:47.579Z,22.57
2023-01-02T01:03:47.409Z,22.58
2023-01-02T01:04:47.425Z,22.58
2023-01-02T01:05:47.415Z,22.58
2023-01-02T01:06:47.416Z,22.67
2023-01-02T01:07:47.409Z,22.57
2023-01-02T01:08:47.434Z,22.68
2023-01-02T01:09:47.410Z,22.58
2023-01-02T01:10:47.415Z,22.68
2023-01-02T01:11:47.431Z,22.58
2023-01-02T01:12:47.407Z,22.68
2023-01-02T01:13:47.403Z,22.57
2023-01-02T01:14:47.405Z,22.77
2023-01-02T01:15:47.406Z,22.57
2023-01-02T01:16:47.403Z,22.78
2023-01-02T01:17:47.395Z,22.68
2023-01-02T01:18:47.413Z,22.68
2023-01-02T01:19:47.396Z,22.58
2023-01-02T01:20:47.406Z,22.58
2023-01-02T01:21:47.394Z,22.67
2023-01-02T01:22:47.396Z,22.68
2023-01-02T01:23:47.389Z,22.68
2023-01-02T01:24:47.419Z,22.57
2023-01-02T01:25:47.387Z,22.58
2023-01-02T01:26:47.393Z,22.58
2023-01-02T01:27:47.393Z,22.67
2023-01-02T01:28:47.392Z,22.58
2023-01-02T01:29:47.383Z,22.58
2023-01-02T01:30:47.390Z,22.57
2023-01-02T01:31:47.459Z,22.58
2023-01-02T01:32:47.389Z,22.68
2023-01-02T01:33:47.398Z,22.58
2023-01-02T01:34:47.386Z,22.57
2023-01-02T01:35:47.379Z,22.68
2023-01-02T01:36:47.390Z,22.57
2023-01-02T01:37:47.375Z,22.58
2023-01-02T01:38:47.386Z,22.58
2023-01-02T01:39:47.380Z,22.67
2023-01-02T01:40:47.407Z,22.58
2023-01-02T01:41:47.377Z,22.57
2023-01-02T01:42:50.282Z,22.68
2023-01-02T01:43:47.376Z,22.68
2023-01-02T01:44:47.381Z,22.58
2023-01-02T01:45:47.425Z,22.57
2023-01-02T01:46:47.420Z,22.58
2023-01-02T01:47:47.370Z,22.57
2023-01-02T01:48:47.376Z,22.68
2023-01-02T01:49:47.369Z,22.68
2023-01-02T01:50:47.372Z,22.58
2023-01-02T01:51:47.365Z,22.68
2023-01-02T01:52:47.376Z,22.57
2023-01-02T01:53:47.378Z,22.68
2023-01-02T01:54:47.367Z,22.57
2023-01-02T01:55:47.359Z,22.78
2023-01-02T01:56:47.428Z,22.57
2023-01-02T01:57:47.358Z,22.68
2023-01-02T01:58:47.361Z,22.57
2023-01-02T01:59:47.356Z,22.68
2023-01-02T02:00:47.422Z,22.68
2023-01-02T02:01:47.579Z,22.67
2023-01-02T02:02:47.581Z,22.58
2023-01-02T02:03:47.359Z,22.67
2023-01-02T02:04:47.359Z,22.58
2023-01-02T02:05:47.357Z,22.67
2023-01-02T02:06:47.362Z,22.67
2023-01-02T02:07:47.349Z,22.58
2023-01-02T02:08:47.356Z,22.67
2023-01-02T02:09:47.344Z,22.68
2023-01-02T02:10:47.363Z,22.58
2023-01-02T02:11:47.345Z,22.58
2023-01-02T02:12:47.490Z,22.68
2023-01-02T02:13:47.343Z,22.58
2023-01-02T02:14:47.356Z,22.58
2023-01-02T02:15:47.342Z,22.68
2023-01-02T02:16:47.386Z,22.58
2023-01-02T02:17:47.353Z,22.58
2023-01-02T02:18:47.351Z,22.58
2023-01-02T02:19:47.342Z,22.49
2023-01-02T02:20:47.347Z,22.68
2023-01-02T02:21:47.338Z,22.58
2023-01-02T02:22:47.353Z,22.58
2023-01-02T02:23:47.336Z,22.58
2023-01-02T02:24:47.342Z,22.68
2023-01-02T02:25:47.346Z,22.57
2023-01-02T02:26:47.348Z,22.58
2023-01-02T02:27:47.333Z,22.68
2023-01-02T02:28:47.368Z,22.57
2023-01-02T02:29:47.333Z,22.58
2023-01-02T02:30:47.339Z,22.67
2023-01-02T02:31:47.363Z,22.57
2023-01-02T02:32:47.336Z,22.68
2023-01-02T02:33:47.331Z,22.67
2023-01-02T02:34:47.333Z,22.57
2023-01-02T02:35:47.331Z,22.58
2023-01-02T02:36:47.334Z,22.67
2023-01-02T02:37:47.323Z,22.58
2023-01-02T02:38:47.330Z,22.57
2023-01-02T02:39:47.322Z,22.68
2023-01-02T02:40:47.329Z,22.57
2023-01-02T02:41:47.321Z,22.57
2023-01-02T02:42:47.327Z,22.58
2023-01-02T02:43:47.326Z,22.58
2023-01-02T02:44:47.347Z,22.67
2023-01-02T02:45:47.413Z,22.67
2023-01-02T02:46:47.326Z,22.58
2023-01-02T02:47:47.316Z,22.57
2023-01-02T02:48:47.321Z,22.58
2023-01-02T02:49:47.322Z,22.67
2023-01-02T02:50:47.325Z,22.67
2023-01-02T02:51:47.315Z,22.67
2023-01-02T02:52:47.322Z,22.57
2023-01-02T02:53:47.353Z,22.58
2023-01-02T02:54:47.317Z,22.58
2023-01-02T02:55:47.309Z,22.58
2023-01-02T02:56:47.318Z,22.58
2023-01-02T02:57:47.306Z,22.78
2023-01-02T02:58:47.315Z,22.68
2023-01-02T02:59:47.304Z,22.58
2023-01-02T03:00:47.455Z,22.58
2023-01-02T03:01:47.491Z,22.57
2023-01-02T03:02:47.521Z,22.58
2023-01-02T03:03:47.306Z,22.68
2023-01-02T03:04:47.312Z,22.57
2023-01-02T03:05:47.308Z,22.67
2023-01-02T03:06:47.304Z,22.78
2023-01-02T03:07:47.299Z,22.57
2023-01-02T03:08:47.304Z,22.58
2023-01-02T03:09:47.316Z,22.67
2023-01-02T03:10:47.296Z,22.58
2023-01-02T03:11:47.302Z,22.38
2023-01-02T03:12:47.295Z,22.57
2023-01-02T03:13:47.298Z,22.48
2023-01-02T03:14:47.293Z,22.57
2023-01-02T03:15:47.304Z,22.57
2023-01-02T03:16:47.396Z,22.67
2023-01-02T03:17:47.296Z,22.67
2023-01-02T03:18:47.291Z,22.68
2023-01-02T03:19:47.296Z,22.68
2023-01-02T03:20:47.295Z,22.58
2023-01-02T03:21:47.294Z,22.67
2023-01-02T03:22:47.287Z,22.58
2023-01-02T03:23:47.305Z,22.77
2023-01-02T03:24:47.288Z,22.68
2023-01-02T03:25:47.294Z,22.48
2023-01-02T03:26:47.284Z,22.57
2023-01-02T03:27:47.291Z,22.67
2023-01-02T03:28:47.279Z,22.68
2023-01-02T03:29:47.286Z,22.67
2023-01-02T03:30:47.286Z,22.58
2023-01-02T03:31:47.283Z,22.57
2023-01-02T03:32:47.398Z,22.57
2023-01-02T03:33:47.280Z,22.58
2023-01-02T03:34:47.273Z,22.68
2023-01-02T03:35:47.288Z,22.39
2023-01-02T03:36:47.284Z,22.68
2023-01-02T03:37:47.280Z,22.49
2023-01-02T03:38:47.270Z,22.67
2023-01-02T03:39:47.277Z,22.77
2023-01-02T03:40:47.269Z,22.67
2023-01-02T03:41:47.273Z,22.67
2023-01-02T03:42:47.275Z,22.58
2023-01-02T03:43:51.477Z,22.77
2023-01-02T03:44:47.269Z,22.49
2023-01-02T03:45:47.323Z,22.38
2023-01-02T03:46:47.264Z,22.58
2023-01-02T03:47:47.273Z,22.57
2023-01-02T03:48:47.389Z,22.68
2023-01-02T03:49:47.268Z,22.67
2023-01-02T03:50:47.272Z,22.67
2023-01-02T03:51:47.269Z,22.48
2023-01-02T03:52:47.262Z,22.67
2023-01-02T03:53:47.265Z,22.39
2023-01-02T03:54:47.261Z,22.67
2023-01-02T03:55:47.264Z,22.48
2023-01-02T03:56:47.255Z,22.68
2023-01-02T03:57:50.785Z,22.68
2023-01-02T03:58:47.257Z,22.67
2023-01-02T03:59:47.262Z,22.67
2023-01-02T04:00:47.255Z,22.67
2023-01-02T04:01:47.375Z,22.78
2023-01-02T04:02:47.337Z,22.49
2023-01-02T04:03:47.267Z,22.67
2023-01-02T04:04:50.969Z,22.67
2023-01-02T04:05:47.257Z,22.58
2023-01-02T04:06:47.260Z,22.68
2023-01-02T04:07:47.255Z,22.48
2023-01-02T04:08:47.246Z,22.67
2023-01-02T04:09:47.249Z,22.48
2023-01-02T04:10:47.249Z,22.48
2023-01-02T04:11:47.260Z,22.49
2023-01-02T04:12:47.241Z,22.67
2023-01-02T04:13:47.245Z,22.48
2023-01-02T04:14:47.255Z,22.49
2023-01-02T04:15:47.334Z,22.48
2023-01-02T04:16:47.253Z,22.48
2023-01-02T04:17:47.242Z,22.48
2023-01-02T04:18:47.304Z,22.67
2023-01-02T04:19:47.245Z,22.77
2023-01-02T04:20:47.255Z,22.77
2023-01-02T04:21:47.239Z,22.68
2023-01-02T04:22:47.232Z,22.48
2023-01-02T04:23:47.239Z,22.57
2023-01-02T04:24:47.238Z,22.77
2023-01-02T04:25:47.236Z,22.57
2023-01-02T04:26:47.231Z,22.57
2023-01-02T04:27:47.236Z,22.58
2023-01-02T04:28:47.226Z,22.48
2023-01-02T04:29:47.232Z,22.48
2023-01-02T04:30:47.264Z,22.49
2023-01-02T04:31:47.252Z,22.48
2023-01-02T04:32:47.228Z,22.67
2023-01-02T04:33:47.231Z,22.49
2023-01-02T04:34:47.222Z,22.48
2023-01-02T04:35:47.232Z,22.78
2023-01-02T04:36:47.247Z,22.57
2023-01-02T04:37:47.228Z,22.49
2023-01-02T04:38:47.226Z,22.58
2023-01-02T04:39:47.227Z,22.49
2023-01-02T04:40:47.218Z,22.68
2023-01-02T04:41:47.227Z,22.48
2023-01-02T04:42:47.214Z,22.38
2023-01-02T04:43:47.223Z,22.48
2023-01-02T04:44:47.215Z,22.57
2023-01-02T04:45:47.220Z,22.57
2023-01-02T04:46:47.228Z,22.57
2023-01-02T04:47:47.219Z,22.38
2023-01-02T04:48:47.213Z,22.57
2023-01-02T04:49:47.218Z,22.58
2023-01-02T04:50:47.208Z,22.57
2023-01-02T04:51:47.214Z,22.38
2023-01-02T04:52:47.321Z,22.48
2023-01-02T04:53:47.211Z,22.38
2023-01-02T04:54:47.204Z,22.49
2023-01-02T04:55:47.231Z,22.58
2023-01-02T04:56:47.202Z,22.58
2023-01-02T04:57:47.207Z,22.58
2023-01-02T04:58:47.200Z,22.48
2023-01-02T04:59:47.207Z,22.57
2023-01-02T05:00:47.201Z,22.57
2023-01-02T05:01:47.341Z,22.49
2023-01-02T05:02:47.246Z,22.78
2023-01-02T05:03:47.315Z,22.57
2023-01-02T05:04:47.195Z,22.58
2023-01-02T05:05:47.203Z,22.38
2023-01-02T05:06:47.197Z,22.48
2023-01-02T05:07:47.202Z,22.48
2023-01-02T05:08:47.226Z,22.38
2023-01-02T05:09:47.199Z,22.49
2023-01-02T05:10:47.191Z,22.48
2023-01-02T05:11:47.200Z,22.28
2023-01-02T05:12:47.193Z,22.30
2023-01-02T05:13:47.213Z,22.57
2023-01-02T05:14:47.193Z,22.49
2023-01-02T05:15:47.263Z,22.48
2023-01-02T05:16:47.202Z,22.38
2023-01-02T05:17:47.191Z,22.38
2023-01-02T05:18:47.181Z,22.38
2023-01-02T05:19:47.188Z,22.28
2023-01-02T05:20:47.186Z,22.30
2023-01-02T05:21:47.186Z,22.30
2023-01-02T05:22:47.179Z,22.20
2023-01-02T05:23:47.184Z,22.19
2023-01-02T05:24:47.201Z,22.09
2023-01-02T05:25:47.181Z,22.20
2023-01-02T05:26:47.174Z,22.20
2023-01-02T05:27:47.183Z,22.30
2023-01-02T05:28:47.175Z,22.19
2023-01-02T05:29:47.180Z,22.30
2023-01-02T05:30:47.173Z,22.09
2023-01-02T05:31:47.179Z,22.10
2023-01-02T05:32:47.191Z,22.00
2023-01-02T05:33:47.184Z,21.99
2023-01-02T05:34:47.171Z,21.99
2023-01-02T05:35:47.184Z,21.99
2023-01-02T05:36:47.178Z,21.99
2023-01-02T05:37:47.175Z,21.89
2023-01-02T05:38:47.173Z,21.99
2023-01-02T05:39:47.180Z,21.99
2023-01-02T05:40:47.282Z,21.99
2023-01-02T05:41:47.171Z,21.89
2023-01-02T05:42:47.166Z,21.89
2023-01-02T05:43:47.171Z,21.89
2023-01-02T05:44:47.165Z,21.99
2023-01-02T05:45:47.166Z,21.99
2023-01-02T05:46:47.172Z,21.89
2023-01-02T05:47:47.169Z,21.80
2023-01-02T05:48:47.158Z,21.89
2023-01-02T05:49:47.167Z,21.89
2023-01-02T05:50:47.157Z,21.81
2023-01-02T05:51:47.164Z,21.80
2023-01-02T05:52:47.154Z,21.80
2023-01-02T05:53:47.157Z,21.70
2023-01-02T05:54:47.150Z,21.70
2023-01-02T05:55:47.158Z,21.70
2023-01-02T05:56:47.179Z,21.70
2023-01-02T05:57:47.168Z,21.61
2023-01-02T05:58:47.170Z,21.80
2023-01-02T05:59:47.153Z,21.70
2023-01-02T06:00:47.145Z,21.70
2023-01-02T06:01:47.294Z,21.80
2023-01-02T06:02:47.978Z,21.80
2023-01-02T06:03:47.205Z,21.70
2023-01-02T06:04:47.141Z,21.89
2023-01-02T06:05:47.152Z,21.70
2023-01-02T06:06:47.139Z,21.70
2023-01-02T06:07:47.145Z,21.70
2023-01-02T06:08:47.138Z,21.70
2023-01-02T06:09:47.142Z,21.70
2023-01-02T06:10:47.135Z,21.80
2023-01-02T06:11:47.143Z,21.80
2023-01-02T06:12:47.157Z,21.70
2023-01-02T06:13:47.137Z,21.80
2023-01-02T06:14:47.139Z,21.89
2023-01-02T06:15:47.139Z,21.80
2023-01-02T06:16:47.173Z,21.70
2023-01-02T06:17:47.135Z,21.70
2023-01-02T06:18:47.143Z,21.80
2023-01-02T06:19:53.545Z,21.70
2023-01-02T06:20:47.124Z,21.70
2023-01-02T06:21:47.132Z,21.89
2023-01-02T06:22:47.121Z,21.70
2023-01-02T06:23:47.131Z,21.70
2023-01-02T06:24:47.119Z,21.70
2023-01-02T06:25:47.125Z,21.99
2023-01-02T06:26:47.119Z,21.80
2023-01-02T06:27:47.124Z,21.70
2023-01-02T06:28:47.138Z,21.99
2023-01-02T06:29:47.124Z,21.70
2023-01-02T06:30:47.120Z,21.70
2023-01-02T06:31:51.306Z,21.80
2023-01-02T06:32:47.114Z,21.80
2023-01-02T06:33:47.122Z,21.89
2023-01-02T06:34:47.109Z,21.80
2023-01-02T06:35:47.117Z,21.70
2023-01-02T06:36:47.135Z,21.70
2023-01-02T06:37:47.115Z,21.89
2023-01-02T06:38:47.108Z,21.80
2023-01-02T06:39:47.120Z,21.70
2023-01-02T06:40:47.105Z,21.80
2023-01-02T06:41:47.110Z,21.70
2023-01-02T06:42:47.108Z,21.89
2023-01-02T06:43:47.134Z,21.80
2023-01-02T06:44:47.147Z,21.61
2023-01-02T06:45:47.161Z,21.80
2023-01-02T06:46:47.099Z,21.80
2023-01-02T06:47:47.106Z,21.80
2023-01-02T06:48:47.100Z,21.61
2023-01-02T06:49:47.112Z,21.89
2023-01-02T06:50:47.106Z,21.70
2023-01-02T06:51:47.103Z,21.80
2023-01-02T06:52:47.097Z,21.70
2023-01-02T06:53:47.123Z,21.61
2023-01-02T06:54:47.092Z,21.61
2023-01-02T06:55:47.098Z,21.80
2023-01-02T06:56:47.102Z,21.80
2023-01-02T06:57:47.097Z,21.70
2023-01-02T06:58:47.092Z,21.80
2023-01-02T06:59:47.095Z,21.70
2023-01-02T07:00:47.218Z,21.61
2023-01-02T07:01:47.317Z,21.80
2023-01-02T07:02:47.296Z,21.70
2023-01-02T07:03:47.095Z,21.70
2023-01-02T07:04:47.080Z,21.61
2023-01-02T07:05:47.106Z,21.70
2023-01-02T07:06:47.079Z,21.80
2023-01-02T07:07:47.087Z,21.61
2023-01-02T07:08:47.080Z,21.61
2023-01-02T07:09:47.083Z,21.80
2023-01-02T07:10:52.660Z,21.41
2023-01-02T07:11:47.083Z,21.41
2023-01-02T07:12:47.075Z,21.51
2023-01-02T07:13:47.104Z,21.51
2023-01-02T07:14:47.074Z,21.61
2023-01-02T07:15:47.078Z,21.80
2023-01-02T07:16:47.201Z,21.70
2023-01-02T07:17:47.078Z,21.80
2023-01-02T07:18:47.076Z,21.80
2023-01-02T07:19:53.254Z,21.80
2023-01-02T07:20:47.067Z,21.70
2023-01-02T07:21:47.072Z,21.41
2023-01-02T07:22:47.068Z,21.41
2023-01-02T07:23:47.073Z,21.89
2023-01-02T07:24:47.061Z,21.70
2023-01-02T07:25:47.064Z,21.80
2023-01-02T07:26:47.067Z,21.70
2023-01-02T07:27:47.088Z,21.70
2023-01-02T07:28:47.063Z,21.61
2023-01-02T07:29:47.059Z,21.61
2023-01-02T07:30:47.064Z,21.51
2023-01-02T07:31:47.103Z,21.61
2023-01-02T07:32:47.085Z,21.51
2023-01-02T07:33:47.056Z,21.31
2023-01-02T07:34:47.060Z,21.31
2023-01-02T07:35:47.052Z,21.51
2023-01-02T07:36:47.060Z,21.51
2023-01-02T07:37:47.051Z,21.51
2023-01-02T07:38:47.061Z,21.51
2023-01-02T07:39:47.051Z,21.41
2023-01-02T07:40:47.056Z,21.51
2023-01-02T07:41:47.047Z,21.51
2023-01-02T07:42:47.057Z,21.61
2023-01-02T07:43:47.045Z,21.61
2023-01-02T07:44:47.049Z,21.41
2023-01-02T07:45:50.385Z,21.70
2023-01-02T07:46:47.049Z,21.61
2023-01-02T07:47:47.041Z,21.31
2023-01-02T07:48:47.089Z,21.41
2023-01-02T07:49:47.036Z,21.31
2023-01-02T07:50:47.044Z,21.31
2023-01-02T07:51:47.034Z,21.31
2023-01-02T07:52:47.145Z,21.31
2023-01-02T07:53:47.032Z,21.31
2023-01-02T07:54:47.048Z,21.31
2023-01-02T07:55:47.032Z,21.41
2023-01-02T07:56:47.043Z,21.41
2023-01-02T07:57:47.028Z,21.41
2023-01-02T07:58:47.037Z,21.12
2023-01-02T07:59:47.114Z,21.12
2023-01-02T08:00:47.036Z,21.41
2023-01-02T08:01:47.121Z,21.12
2023-01-02T08:02:47.045Z,21.02
2023-01-02T08:03:47.057Z,21.02
2023-01-02T08:04:47.155Z,20.93
2023-01-02T08:05:47.025Z,21.22
2023-01-02T08:06:47.058Z,21.12
2023-01-02T08:07:47.032Z,21.02
2023-01-02T08:08:47.026Z,21.12
2023-01-02T08:09:47.022Z,21.31
2023-01-02T08:10:47.025Z,21.31
2023-01-02T08:11:47.024Z,21.31
2023-01-02T08:12:47.027Z,21.22
2023-01-02T08:13:47.047Z,21.22
2023-01-02T08:14:47.023Z,21.31
2023-01-02T08:15:47.024Z,21.31
2023-01-02T08:16:47.087Z,21.51
2023-01-02T08:17:47.013Z,21.41
2023-01-02T08:18:47.021Z,21.41
2023-01-02T08:19:47.019Z,21.31
2023-01-02T08:20:47.057Z,21.41
2023-01-02T08:21:47.009Z,21.12
2023-01-02T08:22:47.021Z,21.12
2023-01-02T08:23:47.004Z,21.12
2023-01-02T08:24:47.016Z,21.12
2023-01-02T08:25:47.012Z,21.02
2023-01-02T08:26:47.011Z,21.22
2023-01-02T08:27:47.003Z,21.22
2023-01-02T08:28:47.009Z,21.22
2023-01-02T08:29:47.000Z,21.02
2023-01-02T08:30:47.092Z,21.22
2023-01-02T08:31:47.002Z,21.31
2023-01-02T08:32:47.004Z,21.22
2023-01-02T08:33:47.011Z,21.12
2023-01-02T08:34:47.002Z,21.12
2023-01-02T08:35:46.996Z,21.12
2023-01-02T08:36:47.033Z,21.12
2023-01-02T08:37:50.635Z,21.13
2023-01-02T08:38:47.013Z,21.12
2023-01-02T08:39:46.995Z,21.22
2023-01-02T08:40:47.004Z,21.02
2023-01-02T08:41:47.001Z,21.12
2023-01-02T08:42:47.000Z,21.02
2023-01-02T08:43:46.989Z,21.02
2023-01-02T08:44:47.013Z,21.02
2023-01-02T08:45:47.050Z,21.12
2023-01-02T08:46:47.009Z,21.12
2023-01-02T08:47:46.982Z,21.03
2023-01-02T08:48:47.091Z,20.93
2023-01-02T08:49:46.985Z,21.02
2023-01-02T08:50:46.991Z,21.02
2023-01-02T08:51:46.987Z,21.12
2023-01-02T08:52:47.011Z,20.83
2023-01-02T08:53:46.978Z,20.93
2023-01-02T08:54:46.989Z,21.02
2023-01-02T08:55:46.990Z,21.13
2023-01-02T08:56:46.987Z,21.13
2023-01-02T08:57:46.972Z,21.12
2023-01-02T08:58:52.347Z,21.02
2023-01-02T08:59:46.972Z,21.02
2023-01-02T09:00:46.978Z,21.02
2023-01-02T09:01:47.106Z,20.93
2023-01-02T09:02:47.134Z,20.93
2023-01-02T09:03:46.968Z,20.73
2023-01-02T09:04:46.973Z,20.93
2023-01-02T09:05:46.968Z,20.93
2023-01-02T09:06:46.970Z,21.02
2023-01-02T09:07:46.963Z,20.83
2023-01-02T09:08:46.989Z,20.83
2023-01-02T09:09:46.963Z,21.02
2023-01-02T09:10:46.968Z,20.73
2023-01-02T09:11:47.031Z,21.02
2023-01-02T09:12:46.968Z,21.02
2023-01-02T09:13:46.958Z,20.93
2023-01-02T09:14:46.964Z,20.93
2023-01-02T09:15:47.000Z,20.93
2023-01-02T09:16:46.967Z,20.94
2023-01-02T09:17:46.954Z,20.93
2023-01-02T09:18:46.970Z,20.94
2023-01-02T09:19:46.952Z,20.93
2023-01-02T09:20:46.962Z,20.94
2023-01-02T09:21:46.955Z,20.93
2023-01-02T09:22:46.957Z,20.83
2023-01-02T09:23:46.960Z,20.94
2023-01-02T09:24:47.082Z,20.93
2023-01-02T09:25:46.951Z,20.83
2023-01-02T09:26:46.959Z,20.93
2023-01-02T09:27:46.944Z,20.83
2023-01-02T09:28:46.968Z,20.84
2023-01-02T09:29:46.948Z,20.83
2023-01-02T09:30:46.984Z,20.93
2023-01-02T09:31:47.111Z,20.83
2023-01-02T09:32:46.951Z,21.03
2023-01-02T09:33:46.939Z,20.93
2023-01-02T09:34:46.947Z,20.94
2023-01-02T09:35:46.947Z,20.94
2023-01-02T09:36:46.945Z,21.03
2023-01-02T09:37:46.954Z,21.03
2023-01-02T09:38:46.944Z,20.64
2023-01-02T09:39:46.939Z,20.93
2023-01-02T09:40:46.965Z,20.93
2023-01-02T09:41:46.934Z,20.93
2023-01-02T09:42:46.939Z,20.83
2023-01-02T09:43:46.954Z,20.93
2023-01-02T09:44:46.946Z,20.84
2023-01-02T09:45:46.926Z,20.83
2023-01-02T09:46:46.966Z,20.83
2023-01-02T09:47:46.929Z,21.02
2023-01-02T09:48:46.936Z,20.73
2023-01-02T09:49:46.926Z,20.73
2023-01-02T09:50:46.946Z,20.73
2023-01-02T09:51:46.958Z,20.73
2023-01-02T09:52:46.937Z,21.02
2023-01-02T09:53:46.922Z,20.83
2023-01-02T09:54:46.928Z,20.93
2023-01-02T09:55:46.922Z,20.83
2023-01-02T09:56:46.953Z,20.93
2023-01-02T09:57:46.933Z,20.74
2023-01-02T09:58:46.922Z,20.73
2023-01-02T09:59:46.918Z,20.83
2023-01-02T10:00:46.925Z,20.73
2023-01-02T10:01:46.929Z,20.74
2023-01-02T10:02:47.028Z,20.83
2023-01-02T10:03:47.053Z,20.84
2023-01-02T10:04:46.920Z,20.64
2023-01-02T10:05:46.922Z,20.65
2023-01-02T10:06:46.917Z,20.73
2023-01-02T10:07:46.907Z,20.83
2023-01-02T10:08:46.916Z,20.73
2023-01-02T10:09:46.906Z,20.84
2023-01-02T10:10:46.912Z,20.83
2023-01-02T10:11:46.903Z,20.65
2023-01-02T10:12:46.936Z,20.73
2023-01-02T10:14:46.908Z,20.64
2023-01-02T10:15:46.934Z,20.74
2023-01-02T10:16:46.912Z,20.74
2023-01-02T10:17:46.897Z,20.64
2023-01-02T10:18:46.904Z,20.55
2023-01-02T10:19:46.896Z,20.65
2023-01-02T10:20:46.906Z,20.55
2023-01-02T10:21:46.899Z,20.54
2023-01-02T10:22:46.902Z,20.55
2023-01-02T10:23:46.894Z,20.74
2023-01-02T10:24:46.901Z,20.64
2023-01-02T10:25:52.745Z,20.83
2023-01-02T10:26:46.899Z,20.73
2023-01-02T10:27:46.894Z,20.83
2023-01-02T10:28:46.919Z,20.83
2023-01-02T10:29:46.890Z,20.83
2023-01-02T10:30:46.896Z,20.83
2023-01-02T10:31:46.927Z,20.55
2023-01-02T10:32:46.897Z,20.94
2023-01-02T10:33:46.891Z,20.93
2023-01-02T10:34:46.890Z,20.44
2023-01-02T10:35:46.884Z,21.12
2023-01-02T10:36:46.889Z,20.44
2023-01-02T10:37:46.883Z,20.44
2023-01-02T10:38:46.885Z,20.44
2023-01-02T10:39:46.883Z,20.44
2023-01-02T10:40:46.882Z,20.54
2023-01-02T10:41:46.881Z,20.64
2023-01-02T10:42:46.889Z,20.65
2023-01-02T10:43:46.874Z,20.44
2023-01-02T10:44:46.905Z,20.74
2023-01-02T10:45:46.871Z,20.44
2023-01-02T10:46:46.929Z,20.73
2023-01-02T10:47:46.880Z,20.74
2023-01-02T10:48:51.943Z,20.64
2023-01-02T10:49:46.871Z,20.65
2023-01-02T10:50:46.876Z,20.65
2023-01-02T10:51:46.868Z,20.64
2023-01-02T10:52:46.894Z,20.65
2023-01-02T10:53:46.870Z,20.65
2023-01-02T10:54:50.009Z,20.64
2023-01-02T10:55:46.864Z,20.54
2023-01-02T10:56:46.869Z,20.65
2023-01-02T10:57:46.866Z,20.73
2023-01-02T10:58:46.869Z,20.54
2023-01-02T10:59:46.860Z,20.64
2023-01-02T11:00:46.935Z,20.73
2023-01-02T11:01:47.057Z,20.65
2023-01-02T11:02:47.018Z,20.65
2023-01-02T11:03:46.867Z,20.64
2023-01-02T11:04:46.868Z,20.54
2023-01-02T11:05:46.877Z,20.44
2023-01-02T11:06:46.862Z,20.84
2023-01-02T11:07:46.854Z,20.73
2023-01-02T11:08:46.861Z,20.84
2023-01-02T11:09:46.852Z,20.36
2023-01-02T11:10:46.863Z,20.73
2023-01-02T11:11:46.852Z,20.84
2023-01-02T11:12:46.856Z,20.64
2023-01-02T11:13:52.077Z,20.83
2023-01-02T11:14:46.863Z,20.84
2023-01-02T11:15:46.912Z,20.65
2023-01-02T11:16:46.873Z,20.73
2023-01-02T11:17:46.844Z,20.73
2023-01-02T11:18:46.862Z,20.74
2023-01-02T11:19:46.845Z,20.74
2023-01-02T11:20:46.850Z,20.74
2023-01-02T11:21:46.844Z,20.65
2023-01-02T11:22:46.847Z,20.84
2023-01-02T11:23:46.916Z,20.65
2023-01-02T11:24:46.844Z,20.64
2023-01-02T11:25:46.835Z,20.74
2023-01-02T11:26:46.848Z,20.65
2023-01-02T11:27:46.836Z,20.83
2023-01-02T11:28:46.908Z,20.64
2023-01-02T11:29:46.831Z,20.74
2023-01-02T11:30:46.839Z,20.73
2023-01-02T11:31:46.890Z,20.73
2023-01-02T11:32:46.882Z,20.94
2023-01-02T11:33:46.882Z,20.54
2023-01-02T11:34:46.840Z,20.64
2023-01-02T11:35:46.829Z,20.64
2023-01-02T11:36:46.841Z,20.65
2023-01-02T11:37:46.826Z,20.64
2023-01-02T11:38:46.830Z,20.54
2023-01-02T11:39:46.838Z,20.54
2023-01-02T11:40:46.831Z,20.55
2023-01-02T11:41:46.835Z,20.44
2023-01-02T11:42:46.823Z,20.36
2023-01-02T11:43:46.843Z,20.34
2023-01-02T11:44:46.825Z,20.84
2023-01-02T11:45:46.855Z,20.34
2023-01-02T11:46:46.834Z,20.36
2023-01-02T11:47:46.842Z,20.45
2023-01-02T11:48:47.002Z,20.55
2023-01-02T11:49:46.826Z,20.45
2023-01-02T11:50:46.816Z,20.54
2023-01-02T11:51:46.820Z,20.54
2023-01-02T11:52:46.814Z,20.74
2023-01-02T11:53:46.840Z,20.44
2023-01-02T11:54:46.812Z,20.44
2023-01-02T11:55:46.838Z,20.34
2023-01-02T11:56:46.809Z,20.45
2023-01-02T11:57:46.817Z,20.44
2023-01-02T11:58:46.809Z,20.34
2023-01-02T11:59:46.815Z,20.34
2023-01-02T12:00:46.806Z,20.54
2023-01-02T12:01:46.997Z,20.54
2023-01-02T12:02:47.008Z,20.36
2023-01-02T12:03:46.806Z,20.25
2023-01-02T12:04:46.836Z,20.26
2023-01-02T12:05:46.805Z,20.44
2023-01-02T12:06:46.803Z,20.26
2023-01-02T12:07:46.809Z,20.25
2023-01-02T12:08:51.315Z,20.36
2023-01-02T12:09:46.803Z,20.26
2023-01-02T12:10:46.798Z,20.25
2023-01-02T12:11:46.807Z,20.36
2023-01-02T12:12:46.794Z,20.26
2023-01-02T12:13:46.800Z,20.36
2023-01-02T12:14:52.443Z,20.06
2023-01-02T12:15:46.804Z,20.25
2023-01-02T12:16:46.809Z,20.06
2023-01-02T12:17:46.800Z,20.36
2023-01-02T12:18:46.796Z,20.36
2023-01-02T12:19:46.796Z,20.16
2023-01-02T12:20:46.825Z,20.15
2023-01-02T12:21:46.792Z,19.96
2023-01-02T12:22:46.788Z,20.25
2023-01-02T12:23:46.794Z,19.96
2023-01-02T12:24:46.786Z,20.06
2023-01-02T12:25:46.798Z,19.86
2023-01-02T12:26:46.782Z,20.16
2023-01-02T12:27:46.789Z,19.96
2023-01-02T12:28:46.777Z,20.06
2023-01-02T12:29:48.845Z,20.06
2023-01-02T12:30:46.780Z,20.16
2023-01-02T12:31:46.829Z,20.15
2023-01-02T12:32:46.786Z,20.06
2023-01-02T12:33:46.801Z,20.06
2023-01-02T12:34:46.780Z,20.16
2023-01-02T12:35:46.780Z,20.06
2023-01-02T12:36:46.795Z,20.06
2023-01-02T12:37:46.794Z,20.15
2023-01-02T12:38:46.773Z,20.06
2023-01-02T12:39:46.775Z,20.15
2023-01-02T12:40:46.767Z,20.06
2023-01-02T12:42:01.790Z,20.06
2023-01-02T12:42:46.765Z,20.06
2023-01-02T12:43:46.774Z,20.06
2023-01-02T12:44:46.764Z,20.26
2023-01-02T12:45:46.814Z,20.06
2023-01-02T12:46:46.767Z,20.16
2023-01-02T12:47:46.772Z,20.26
2023-01-02T12:48:46.764Z,20.06
2023-01-02T12:49:46.777Z,20.16
2023-01-02T12:50:49.018Z,20.06
2023-01-02T12:51:46.772Z,20.06
2023-01-02T12:52:46.782Z,20.25
2023-01-02T12:53:46.775Z,20.25